Time;durP1;ratioP1;P1;durP2;ratioP2;P2;SDS_P1;SDS_P2;PMS_P1;PMS_P2;Temp;Humidity;BMP_temperature;BMP_pressure;BME280_temperature;BME280_humidity;BME280_pressure;Samples;Min_cycle;Max_cycle;Signal;HPM_P1;HPM_P2
2022/11/18 00:01:22;;;;;;;11.30;6.07;;;;;;;3.96;90.88;99102.73;1441536;90;21407;-82
2022/11/18 00:03:50;;;;;;;5.63;4.27;;;;;;;3.97;90.80;99111.41;1455582;90;22168;-82
2022/11/18 00:06:19;;;;;;;6.47;4.40;;;;;;;3.99;90.64;99105.07;1435301;89;22250;-83
2022/11/18 00:08:46;;;;;;;21.00;9.20;;;;;;;4.02;90.53;99099.55;1442894;90;21378;-80
2022/11/18 00:14:17;;;;;;;9.50;5.87;;;;;;;4.02;90.55;99089.08;1436281;89;22153;-81
2022/11/18 00:16:29;;;;;;;5.13;3.77;;;;;;;4.02;91.08;99093.02;1438001;91;21733;-83
2022/11/18 00:18:55;;;;;;;5.10;4.20;;;;;;;4.00;90.87;99093.66;1433915;91;21364;-81
2022/11/18 00:21:21;;;;;;;5.17;4.10;;;;;;;3.97;90.94;99097.86;1431847;90;21349;-80
2022/11/18 00:23:48;;;;;;;10.73;5.93;;;;;;;3.95;91.11;99095.85;1430879;91;21326;-80
2022/11/18 00:26:14;;;;;;;5.63;3.77;;;;;;;3.95;91.06;99094.55;1425060;91;21349;-80
2022/11/18 00:28:41;;;;;;;4.80;4.00;;;;;;;3.94;91.33;99093.36;1433252;91;21357;-79
2022/11/18 00:31:11;;;;;;;5.87;4.07;;;;;;;3.94;91.28;99098.14;1433622;90;21349;-80
2022/11/18 00:33:38;;;;;;;5.70;4.53;;;;;;;3.97;91.75;99099.17;1431629;91;21349;-80
2022/11/18 00:36:09;;;;;;;7.73;4.70;;;;;;;3.98;91.61;99100.81;1432156;91;21404;-80
2022/11/18 00:38:35;;;;;;;15.75;6.72;;;;;;;3.99;91.98;99097.22;1439291;91;21475;-80
2022/11/18 00:41:08;;;;;;;8.20;5.53;;;;;;;3.93;92.34;99098.26;1440786;90;22413;-80
2022/11/18 00:43:35;;;;;;;7.27;5.23;;;;;;;3.87;92.66;99092.27;1436309;89;21513;-77
2022/11/18 00:46:03;;;;;;;7.93;5.23;;;;;;;3.82;93.48;99086.13;1437884;91;22057;-77
2022/11/18 00:48:29;;;;;;;6.77;5.57;;;;;;;3.79;93.64;99078.55;1445771;90;21582;-79
2022/11/18 00:50:58;;;;;;;7.83;5.33;;;;;;;3.78;94.16;99075.59;1446980;90;21463;-78
2022/11/18 00:53:26;;;;;;;5.27;4.10;;;;;;;3.78;94.75;99062.03;1436646;88;21629;-78
2022/11/18 00:55:52;;;;;;;7.80;5.03;;;;;;;3.79;94.53;99061.54;1433268;90;21471;-78
2022/11/18 00:58:18;;;;;;;5.90;4.43;;;;;;;3.78;94.83;99065.95;1452323;90;22249;-79
2022/11/18 01:00:48;;;;;;;7.50;4.97;;;;;;;3.68;95.57;99064.28;1449358;89;21499;-78
2022/11/18 01:03:15;;;;;;;9.27;6.17;;;;;;;3.66;94.68;99061.00;1440745;90;22584;-79
2022/11/18 01:05:41;;;;;;;6.47;5.53;;;;;;;3.63;95.55;99056.05;1450924;90;21555;-78
2022/11/18 01:08:09;;;;;;;8.00;6.33;;;;;;;3.61;95.50;99053.55;1431295;90;21607;-79
2022/11/18 01:10:38;;;;;;;8.20;5.70;;;;;;;3.56;96.22;99050.51;1442161;90;22345;-77
2022/11/18 01:13:18;;;;;;;13.00;7.33;;;;;;;3.54;97.91;99050.66;1444018;90;21330;-78
2022/11/18 01:15:57;;;;;;;9.60;5.62;;;;;;;3.54;98.38;99051.12;1440823;90;21353;-77
2022/11/18 01:18:28;;;;;;;10.23;5.90;;;;;;;3.59;98.04;99049.75;1430398;90;22225;-78
2022/11/18 01:20:57;;;;;;;;;;;;;;;3.62;98.10;99055.19;1442892;91;22837;-77
2022/11/18 01:23:23;;;;;;;7.60;5.97;;;;;;;3.60;97.91;99044.06;1424353;90;20280;-78
2022/11/18 01:25:49;;;;;;;5.73;4.93;;;;;;;3.64;98.39;99043.30;1448920;90;21353;-78
2022/11/18 01:28:17;;;;;;;8.73;5.10;;;;;;;3.63;98.22;99042.96;1436524;90;21337;-77
2022/11/18 01:30:44;;;;;;;7.33;5.60;;;;;;;3.63;98.82;99045.58;1421794;90;21497;-78
2022/11/18 01:33:11;;;;;;;7.67;5.10;;;;;;;3.58;98.40;99042.88;1437273;89;21334;-77
2022/11/18 01:35:41;;;;;;;7.47;5.40;;;;;;;3.56;98.98;99035.63;1449529;91;21312;-78
2022/11/18 01:38:10;;;;;;;6.33;4.70;;;;;;;3.55;98.98;99027.45;1443906;91;21271;-78
2022/11/18 01:40:38;;;;;;;7.13;4.97;;;;;;;3.59;98.85;99024.89;1427495;91;22129;-79
2022/11/18 01:43:18;;;;;;;8.40;4.53;;;;;;;3.59;99.85;99032.74;1430932;91;21561;-79
2022/11/18 01:45:46;;;;;;;9.40;5.37;;;;;;;3.59;98.78;99031.44;1414779;92;21363;-78
2022/11/18 01:48:21;;;;;;;6.03;4.90;;;;;;;3.61;99.19;99024.28;1417396;92;22170;-77
2022/11/18 01:50:55;;;;;;;8.73;5.67;;;;;;;3.61;99.19;99024.28;1431698;91;22454;-79
2022/11/18 01:53:32;;;;;;;10.17;5.53;;;;;;;3.60;99.38;99025.75;1435821;91;21413;-78
2022/11/18 01:56:03;;;;;;;8.83;6.43;;;;;;;3.53;99.53;99035.91;1438208;91;21313;-78
2022/11/18 01:58:38;;;;;;;7.50;6.10;;;;;;;3.45;99.83;99022.68;1439471;89;21471;-78
2022/11/18 02:01:05;;;;;;;8.03;5.43;;;;;;;3.44;100.00;99021.04;1440906;91;21999;-79
2022/11/18 02:03:33;;;;;;;7.03;5.50;;;;;;;3.44;100.00;99021.04;1442443;90;21551;-80
2022/11/18 02:06:01;;;;;;;8.80;6.57;;;;;;;3.52;100.00;99015.95;1443756;91;21367;-79
2022/11/18 02:08:28;;;;;;;8.77;5.30;;;;;;;3.46;100.00;99015.20;1445300;91;21442;-78
2022/11/18 02:10:55;;;;;;;9.73;6.10;;;;;;;3.45;100.00;99012.70;1436884;90;21433;-77
2022/11/18 02:13:22;;;;;;;9.30;6.73;;;;;;;3.48;100.00;99010.66;1428977;91;21367;-77
2022/11/18 02:16:09;;;;;;;9.07;5.80;;;;;;;3.47;100.00;99007.69;1439925;90;21330;-80
2022/11/18 02:18:55;;;;;;;7.80;5.43;;;;;;;3.50;100.00;99010.02;1434455;89;21509;-80
2022/11/18 02:21:54;;;;;;;7.00;5.17;;;;;;;3.53;100.00;99005.83;1432708;89;21441;-80
2022/11/18 02:24:44;;;;;;;9.60;6.10;;;;;;;3.43;100.00;98991.11;1438659;91;21405;-79
2022/11/18 02:27:39;;;;;;;8.40;7.03;;;;;;;3.43;100.00;98991.11;1435462;91;21360;-78
2022/11/18 02:30:12;;;;;;;15.93;7.77;;;;;;;3.39;100.00;98987.47;1437132;91;21461;-80
2022/11/18 02:32:55;;;;;;;7.33;5.53;;;;;;;3.45;100.00;98980.83;1435407;91;21295;-79
2022/11/18 02:35:28;;;;;;;7.10;5.23;;;;;;;3.45;100.00;98966.45;1444963;91;22010;-80
2022/11/18 02:38:06;;;;;;;6.47;4.70;;;;;;;3.52;100.00;98970.66;1438789;91;21327;-79
2022/11/18 02:40:40;;;;;;;6.07;4.47;;;;;;;3.54;100.00;98960.41;1441568;91;21401;-81
2022/11/18 02:43:21;;;;;;;9.80;5.77;;;;;;;3.54;100.00;98956.94;1432734;90;21404;-80
2022/11/18 02:45:51;;;;;;;7.10;5.50;;;;;;;3.54;100.00;98975.25;1437032;91;22185;-80
2022/11/18 02:48:20;;;;;;;7.60;6.15;;;;;;;3.46;100.00;98983.81;1436505;91;21319;-80
2022/11/18 02:50:49;;;;;;;7.10;5.57;;;;;;;3.43;100.00;98990.62;1433096;91;22266;-79
2022/11/18 02:53:19;;;;;;;9.40;5.60;;;;;;;3.44;100.00;98992.27;1420063;91;21386;-80
2022/11/18 02:55:48;;;;;;;5.75;4.83;;;;;;;3.45;100.00;98972.98;1445029;91;22496;-80
2022/11/18 02:58:18;;;;;;;5.80;4.80;;;;;;;3.51;100.00;98985.54;1442308;91;21542;-81
2022/11/18 03:00:57;;;;;;;8.40;5.40;;;;;;;3.54;100.00;98990.50;1444480;91;21487;-81
2022/11/18 03:03:31;;;;;;;6.80;5.83;;;;;;;3.55;100.00;98990.01;1443854;90;21430;-81
2022/11/18 03:06:14;;;;;;;8.83;6.40;;;;;;;3.47;100.00;98995.09;1433165;91;21405;-81
2022/11/18 03:09:06;;;;;;;6.17;5.53;;;;;;;3.35;100.00;98986.06;1424624;91;21412;-79
2022/11/18 03:11:44;;;;;;;6.37;4.87;;;;;;;3.37;100.00;99004.25;1434243;91;21383;-80
2022/11/18 03:14:30;;;;;;;11.10;6.17;;;;;;;3.30;100.00;98992.67;1426948;91;21301;-81
2022/11/18 03:17:04;;;;;;;10.57;6.43;;;;;;;3.24;100.00;98990.72;1430898;91;21364;-81
2022/11/18 03:20:18;;;;;;;11.33;7.43;;;;;;;3.22;100.00;98983.85;1440208;91;21371;-81
2022/11/18 03:23:19;;;;;;;10.73;7.83;;;;;;;3.11;100.00;98983.85;1392227;91;21485;-81
2022/11/18 03:26:03;;;;;;;11.38;8.33;;;;;;;3.06;100.00;98983.42;1439674;90;21412;-81
2022/11/18 03:28:59;;;;;;;9.73;7.53;;;;;;;3.10;100.00;98986.10;1433932;90;21573;-84
2022/11/18 03:31:48;;;;;;;8.67;6.40;;;;;;;3.14;100.00;98997.95;1430769;91;22162;-80
2022/11/18 03:34:32;;;;;;;10.83;7.73;;;;;;;3.15;100.00;98996.98;1436372;89;22994;-80
2022/11/18 03:37:02;;;;;;;8.73;6.63;;;;;;;3.26;100.00;98987.37;1444680;91;22458;-82
2022/11/18 03:39:33;;;;;;;9.60;7.50;;;;;;;3.26;100.00;98987.37;1444696;91;22355;-81
2022/11/18 03:42:07;;;;;;;7.62;6.78;;;;;;;3.28;100.00;98977.13;1431120;91;21615;-80
2022/11/18 03:44:37;;;;;;;12.37;7.53;;;;;;;3.30;100.00;98975.67;1424616;90;21556;-81
2022/11/18 03:47:11;;;;;;;11.70;7.23;;;;;;;3.34;100.00;98957.45;1445121;89;21494;-81
2022/11/18 03:49:45;;;;;;;9.87;7.43;;;;;;;3.34;100.00;98957.45;1439449;89;22178;-80
2022/11/18 03:52:19;;;;;;;8.47;6.87;;;;;;;3.37;100.00;98949.33;1441806;91;23252;-80
2022/11/18 03:54:50;;;;;;;11.70;7.67;;;;;;;3.41;100.00;98945.47;1432209;91;22182;-80
2022/11/18 03:57:26;;;;;;;10.00;7.72;;;;;;;3.41;100.00;98945.47;1434849;91;22331;-80
2022/11/18 04:00:06;;;;;;;10.07;7.67;;;;;;;3.37;100.00;98937.56;1434815;90;21391;-80
2022/11/18 04:02:33;;;;;;;9.43;8.37;;;;;;;3.41;100.00;98920.62;1418581;91;21286;-80
2022/11/18 04:05:02;;;;;;;12.23;8.23;;;;;;;3.46;100.00;98914.98;1442455;91;22440;-80
2022/11/18 04:07:56;;;;;;;9.03;7.33;;;;;;;3.46;100.00;98895.37;1439077;90;22357;-81
2022/11/18 04:10:48;;;;;;;11.13;7.83;;;;;;;3.48;100.00;98894.27;1442750;91;21368;-81
2022/11/18 04:13:25;;;;;;;12.43;9.97;;;;;;;3.48;100.00;98894.27;1446895;90;21517;-80
2022/11/18 04:15:53;;;;;;;12.37;9.40;;;;;;;3.46;100.00;98901.42;1444698;90;22346;-82
2022/11/18 04:18:20;;;;;;;12.27;8.87;;;;;;;3.39;100.00;98905.53;1450447;90;21392;-80
2022/11/18 04:20:46;;;;;;;16.93;9.50;;;;;;;3.25;100.00;98910.73;1447209;90;22094;-79
2022/11/18 04:23:12;;;;;;;11.27;8.20;;;;;;;3.25;100.00;98910.73;1445503;91;21423;-80
2022/11/18 04:25:38;;;;;;;9.47;8.23;;;;;;;3.22;100.00;98907.55;1450948;90;21310;-79
2022/11/18 04:28:05;;;;;;;11.53;9.40;;;;;;;3.24;100.00;98915.59;1453645;90;22301;-80
2022/11/18 04:30:32;;;;;;;12.63;9.90;;;;;;;3.18;100.00;98920.56;1439936;90;21442;-78
2022/11/18 04:32:58;;;;;;;14.37;10.07;;;;;;;3.19;100.00;98922.20;1435905;91;21412;-80
2022/11/18 04:35:25;;;;;;;10.67;8.50;;;;;;;3.24;100.00;98927.84;1433178;91;21371;-81
2022/11/18 04:37:51;;;;;;;11.23;8.90;;;;;;;3.23;100.00;98919.19;1431064;91;21487;-81
2022/11/18 04:40:17;;;;;;;12.87;10.20;;;;;;;3.35;100.00;98920.69;1435984;90;22259;-81
2022/11/18 04:42:43;;;;;;;14.47;10.00;;;;;;;3.38;100.00;98924.82;1445769;90;21319;-80
2022/11/18 04:45:10;;;;;;;14.53;9.43;;;;;;;3.38;100.00;98918.28;1434947;91;22554;-80
2022/11/18 04:47:37;;;;;;;16.00;10.53;;;;;;;3.33;100.00;98910.02;1440312;90;21438;-79
2022/11/18 04:50:04;;;;;;;12.77;9.47;;;;;;;3.41;100.00;98926.34;1439250;91;22071;-80
2022/11/18 04:52:30;;;;;;;14.13;9.67;;;;;;;3.45;100.00;98923.29;1437204;90;21508;-80
2022/11/18 04:54:57;;;;;;;11.53;9.97;;;;;;;3.51;100.00;98926.69;1429173;90;21330;-78
2022/11/18 04:57:23;;;;;;;12.00;9.07;;;;;;;3.52;100.00;98921.78;1435770;90;21530;-78
2022/11/18 04:59:49;;;;;;;13.03;9.60;;;;;;;3.45;100.00;98915.93;1438446;91;21611;-79
2022/11/18 05:02:15;;;;;;;12.53;9.63;;;;;;;3.55;100.00;98934.58;1442042;90;21426;-79
2022/11/18 05:04:41;;;;;;;11.87;9.43;;;;;;;3.57;100.00;98948.36;1440780;90;22329;-78
2022/11/18 05:07:07;;;;;;;11.67;10.30;;;;;;;3.45;100.00;98965.14;1423840;91;21330;-78
2022/11/18 05:09:34;;;;;;;15.00;11.33;;;;;;;3.45;100.00;98965.14;1430876;91;22475;-78
2022/11/18 05:14:45;;;;;;;15.50;11.20;;;;;;;3.32;100.00;98969.83;1436930;90;22196;-78
2022/11/18 05:17:11;;;;;;;16.17;10.77;;;;;;;3.26;100.00;98973.00;1444309;91;22391;-78
2022/11/18 05:19:39;;;;;;;14.20;10.87;;;;;;;3.26;100.00;98973.00;1425544;90;21335;-79
2022/11/18 05:22:06;;;;;;;16.00;10.33;;;;;;;3.25;100.00;98975.25;1432182;91;21390;-78
2022/11/18 05:24:32;;;;;;;13.87;10.70;;;;;;;3.19;100.00;98966.64;1443218;91;22180;-79
2022/11/18 05:26:58;;;;;;;16.63;10.10;;;;;;;3.13;100.00;98950.53;1437350;90;22203;-78
2022/11/18 05:29:24;;;;;;;13.73;10.50;;;;;;;2.93;100.00;98950.17;1447290;91;21324;-78
2022/11/18 05:31:50;;;;;;;11.87;8.93;;;;;;;2.83;100.00;98938.89;1439918;91;21430;-78
2022/11/18 05:34:17;;;;;;;16.10;11.17;;;;;;;2.74;100.00;98935.30;1429171;91;22002;-79
2022/11/18 05:36:43;;;;;;;14.53;10.37;;;;;;;2.76;100.00;98919.47;1441843;90;22032;-79
2022/11/18 05:39:09;;;;;;;17.67;10.40;;;;;;;2.77;100.00;98918.04;1442260;90;22047;-79
2022/11/18 05:44:20;;;;;;;13.77;9.17;;;;;;;2.86;100.00;98913.79;1439260;90;22196;-77
2022/11/18 05:46:46;;;;;;;16.43;9.97;;;;;;;2.80;100.00;98914.33;1438560;91;22293;-80
2022/11/18 05:49:12;;;;;;;18.53;11.67;;;;;;;2.80;100.00;98914.33;1429335;90;22010;-78
2022/11/18 05:51:38;;;;;;;14.60;10.53;;;;;;;2.89;100.00;98930.50;1441175;90;21402;-78
2022/11/18 05:54:08;;;;;;;14.37;9.73;;;;;;;2.80;100.00;98924.79;1438082;90;22973;-77
2022/11/18 05:56:41;;;;;;;19.83;9.93;;;;;;;2.80;100.00;98928.70;1438816;90;22180;-78
2022/11/18 05:59:07;;;;;;;12.23;9.50;;;;;;;2.78;100.00;98934.53;1431515;91;22183;-78
2022/11/18 06:02:00;;;;;;;13.83;9.50;;;;;;;2.76;100.00;98936.45;1429244;91;21995;-78
2022/11/18 06:04:34;;;;;;;13.47;9.83;;;;;;;2.77;100.00;98938.12;1443176;91;22052;-80
2022/11/18 06:07:05;;;;;;;12.63;8.47;;;;;;;2.85;100.00;98939.55;1435238;89;22225;-80
2022/11/18 06:09:35;;;;;;;13.43;8.68;;;;;;;2.87;100.00;98940.26;1436352;91;22134;-80
2022/11/18 06:12:04;;;;;;;16.50;9.23;;;;;;;2.89;100.00;98942.27;1438048;91;22278;-80
2022/11/18 06:14:44;;;;;;;28.07;9.87;;;;;;;2.91;100.00;98949.50;1432659;90;22232;-80
2022/11/18 06:17:15;;;;;;;14.60;9.57;;;;;;;2.93;100.00;98943.63;1444254;90;22219;-79
2022/11/18 06:19:42;;;;;;;30.20;11.13;;;;;;;2.96;100.00;98943.36;1440256;90;22319;-80
2022/11/18 06:22:09;;;;;;;24.00;10.30;;;;;;;3.00;100.00;98952.60;1451351;90;22161;-78
2022/11/18 06:24:36;;;;;;;9.73;7.43;;;;;;;3.00;100.00;98955.22;1432582;91;22126;-78
2022/11/18 06:27:02;;;;;;;12.93;8.73;;;;;;;2.99;100.00;98951.41;1440773;91;23078;-79
2022/11/18 06:29:30;;;;;;;11.43;7.80;;;;;;;2.95;100.00;98948.25;1439009;91;22082;-77
2022/11/18 06:31:56;;;;;;;23.47;10.33;;;;;;;2.92;100.00;98936.28;1435116;91;22125;-75
2022/11/18 06:34:22;;;;;;;15.13;9.03;;;;;;;2.89;100.00;98932.63;1442380;91;22070;-77
2022/11/18 06:36:48;;;;;;;16.17;9.00;;;;;;;2.90;100.00;98936.06;1439147;91;23292;-78
2022/11/18 06:39:14;;;;;;;15.53;9.90;;;;;;;2.89;100.00;98944.88;1441842;91;22060;-77
2022/11/18 06:41:40;;;;;;;18.77;10.67;;;;;;;2.91;100.00;98950.80;1438110;89;22267;-77
2022/11/18 06:44:06;;;;;;;16.50;10.07;;;;;;;2.98;100.00;98943.23;1438482;91;21364;-77
2022/11/18 06:49:17;;;;;;;22.40;10.70;;;;;;;3.08;100.00;98920.08;1438691;91;21401;-77
2022/11/18 06:51:43;;;;;;;22.53;9.10;;;;;;;3.16;100.00;98920.23;1431921;91;23077;-77
2022/11/18 06:54:12;;;;;;;18.13;10.30;;;;;;;3.22;100.00;98929.77;1430554;91;21350;-77
2022/11/18 06:56:38;;;;;;;16.03;10.80;;;;;;;3.24;100.00;98939.13;1438332;89;22045;-77
2022/11/18 06:59:05;;;;;;;20.77;10.70;;;;;;;3.24;100.00;98939.13;1427068;90;21546;-77
2022/11/18 07:01:38;;;;;;;21.90;11.50;;;;;;;3.29;100.00;98943.95;1449130;90;23055;-77
2022/11/18 07:04:05;;;;;;;16.97;11.23;;;;;;;3.33;100.00;98950.06;1443132;90;21362;-78
2022/11/18 07:06:34;;;;;;;16.17;10.63;;;;;;;3.39;100.00;98948.69;1451785;90;22006;-77
2022/11/18 07:09:05;;;;;;;21.60;11.27;;;;;;;3.43;100.00;98944.85;1441842;90;22130;-78
2022/11/18 07:11:32;;;;;;;20.95;11.18;;;;;;;3.50;100.00;98943.81;1449151;90;21354;-77
2022/11/18 07:13:58;;;;;;;20.30;11.37;;;;;;;3.54;100.00;98932.09;1440837;90;21404;-77
2022/11/18 07:16:26;;;;;;;18.30;9.23;;;;;;;3.58;100.00;98936.09;1439478;89;22468;-78
2022/11/18 07:18:54;;;;;;;18.33;10.40;;;;;;;3.61;100.00;98937.95;1444456;90;22456;-78
2022/11/18 07:21:24;;;;;;;19.27;9.97;;;;;;;3.67;100.00;98951.44;1437304;89;22382;-78
2022/11/18 07:23:51;;;;;;;20.43;11.20;;;;;;;3.69;100.00;98936.44;1441188;90;21513;-77
2022/11/18 07:26:18;;;;;;;21.43;11.33;;;;;;;3.73;100.00;98931.25;1446865;89;21333;-78
2022/11/18 07:28:44;;;;;;;18.33;9.80;;;;;;;3.63;100.00;98927.84;1431909;90;21331;-77
2022/11/18 07:31:15;;;;;;;21.37;10.80;;;;;;;3.63;100.00;98927.84;1429749;90;21414;-78
2022/11/18 07:33:43;;;;;;;22.07;11.63;;;;;;;3.65;100.00;98935.87;1445874;90;22367;-78
2022/11/18 07:36:18;;;;;;;23.47;13.63;;;;;;;3.71;100.00;98935.79;1437481;89;21428;-78
2022/11/18 07:38:45;;;;;;;19.77;11.53;;;;;;;3.79;100.00;98933.30;1440044;90;21369;-78
2022/11/18 07:41:16;;;;;;;20.63;11.07;;;;;;;3.84;100.00;98927.17;1446071;90;21376;-78
2022/11/18 07:43:43;;;;;;;;;;;;;;;3.89;100.00;98927.58;1445418;90;21429;-78
2022/11/18 07:46:24;;;;;;;21.40;13.10;;;;;;;3.82;100.00;98935.64;1447612;90;20445;-77
2022/11/18 07:48:53;;;;;;;28.38;14.65;;;;;;;3.86;100.00;98937.02;1440726;90;22374;-78
2022/11/18 07:51:23;;;;;;;29.53;14.53;;;;;;;3.90;100.00;98942.30;1443396;90;21318;-78
2022/11/18 07:53:50;;;;;;;27.50;14.20;;;;;;;3.92;100.00;98941.69;1437227;90;22234;-78
2022/11/18 07:56:17;;;;;;;25.43;14.30;;;;;;;3.94;100.00;98933.22;1442244;90;21428;-78
2022/11/18 07:58:44;;;;;;;25.50;12.77;;;;;;;3.95;100.00;98925.70;1445239;90;21324;-78
2022/11/18 08:01:20;;;;;;;24.60;13.60;;;;;;;3.99;100.00;98931.47;1442874;90;21392;-78
2022/11/18 08:03:48;;;;;;;23.20;13.23;;;;;;;4.04;100.00;98927.95;1441451;90;22441;-78
2022/11/18 08:06:17;;;;;;;28.60;13.13;;;;;;;4.15;100.00;98929.58;1438032;90;21384;-85
2022/11/18 08:08:45;;;;;;;27.67;13.57;;;;;;;4.22;100.00;98924.91;1440925;90;22286;-82
2022/11/18 08:11:15;;;;;;;31.87;14.47;;;;;;;4.27;100.00;98916.64;1437397;90;21890;-82
2022/11/18 08:14:07;;;;;;;23.30;13.97;;;;;;;4.32;100.00;98910.48;1424608;90;21451;-84
2022/11/18 08:16:34;;;;;;;21.35;11.63;;;;;;;4.35;100.00;98918.05;1443026;90;21362;-83
2022/11/18 08:19:00;;;;;;;27.57;15.13;;;;;;;4.43;100.00;98927.78;1438505;90;21290;-83
2022/11/18 08:21:26;;;;;;;24.47;12.77;;;;;;;4.48;100.00;98917.70;1436599;90;21354;-83
2022/11/18 08:23:56;;;;;;;497.63;346.17;;;;;;;4.53;100.00;98908.92;1443806;90;21406;-84
2022/11/18 08:26:23;;;;;;;35.97;21.70;;;;;;;4.59;100.00;98907.52;1443074;90;22286;-84
2022/11/18 08:28:50;;;;;;;21.60;13.07;;;;;;;4.65;100.00;98913.48;1419548;90;21494;-84
2022/11/18 08:31:21;;;;;;;24.97;14.73;;;;;;;4.67;100.00;98916.30;1449821;90;21318;-84
2022/11/18 08:33:47;;;;;;;22.67;14.65;;;;;;;4.68;100.00;98914.50;1443942;89;21510;-86
2022/11/18 08:36:24;;;;;;;21.33;13.80;;;;;;;4.68;100.00;98916.63;1452027;90;23294;-86
2022/11/18 08:38:58;;;;;;;27.80;16.07;;;;;;;4.69;100.00;98913.52;1434370;90;21340;-83
2022/11/18 08:41:37;;;;;;;27.67;16.43;;;;;;;4.70;100.00;98913.88;1440982;90;22382;-83
2022/11/18 08:44:05;;;;;;;20.07;13.00;;;;;;;4.75;100.00;98912.95;1443344;90;21911;-83
2022/11/18 08:46:32;;;;;;;22.93;13.47;;;;;;;4.80;100.00;98913.80;1443827;89;21611;-86
2022/11/18 08:48:58;;;;;;;25.20;16.63;;;;;;;4.84;100.00;98908.63;1446078;90;21355;-84
2022/11/18 08:51:25;;;;;;;30.27;20.23;;;;;;;4.85;100.00;98914.19;1442861;90;21356;-84
2022/11/18 08:53:51;;;;;;;33.53;22.77;;;;;;;4.77;100.00;98920.66;1450432;90;22249;-83
2022/11/18 08:56:22;;;;;;;45.43;26.67;;;;;;;4.73;100.00;98924.88;1444898;90;21384;-83
2022/11/18 08:58:49;;;;;;;41.23;23.73;;;;;;;4.73;100.00;98939.30;1448179;90;21436;-82
2022/11/18 09:01:16;;;;;;;40.10;22.50;;;;;;;4.73;100.00;98942.41;1447683;90;21458;-84
2022/11/18 09:03:42;;;;;;;39.63;23.23;;;;;;;4.75;100.00;98937.36;1443125;90;21384;-84
2022/11/18 09:06:19;;;;;;;38.47;23.03;;;;;;;4.82;100.00;98932.34;1442596;89;21354;-84
2022/11/18 09:08:46;;;;;;;30.13;18.37;;;;;;;4.86;100.00;98930.25;1440450;90;22611;-84
2022/11/18 09:11:20;;;;;;;52.73;30.23;;;;;;;4.87;100.00;98923.56;1469558;90;21385;-84
2022/11/18 09:13:49;;;;;;;28.93;16.17;;;;;;;4.90;100.00;98931.63;1456455;90;21451;-85
2022/11/18 09:16:15;;;;;;;141.67;77.83;;;;;;;4.90;100.00;98925.88;1439620;90;21444;-84
2022/11/18 09:18:41;;;;;;;92.83;54.30;;;;;;;4.91;100.00;98925.39;1451210;90;21378;-84
2022/11/18 09:21:09;;;;;;;23.67;13.80;;;;;;;4.91;100.00;98920.97;1447383;90;21348;-84
2022/11/18 09:23:37;;;;;;;22.63;13.60;;;;;;;4.97;100.00;98916.93;1450429;90;21421;-83
2022/11/18 09:26:10;;;;;;;30.37;15.50;;;;;;;5.04;100.00;98918.49;1442285;90;21421;-83
2022/11/18 09:28:37;;;;;;;22.93;13.60;;;;;;;5.12;100.00;98919.86;1454797;90;21518;-84
2022/11/18 09:31:08;;;;;;;21.23;14.37;;;;;;;5.15;100.00;98913.00;1447651;90;21532;-83
2022/11/18 09:33:36;;;;;;;39.43;22.40;;;;;;;5.14;100.00;98912.67;1440682;90;21370;-84
2022/11/18 09:36:05;;;;;;;26.93;15.77;;;;;;;5.13;100.00;98903.17;1442495;89;21369;-83
2022/11/18 09:38:32;;;;;;;50.67;28.73;;;;;;;5.11;100.00;98895.44;1456934;90;21506;-84
2022/11/18 09:41:27;;;;;;;26.63;15.50;;;;;;;5.10;100.00;98890.36;1442151;90;21340;-83
2022/11/18 09:44:25;;;;;;;30.03;16.97;;;;;;;5.12;100.00;98887.08;1445479;90;21443;-81
2022/11/18 09:47:02;;;;;;;26.90;15.40;;;;;;;5.14;100.00;98893.82;1438512;90;21621;-83
2022/11/18 09:49:36;;;;;;;26.60;15.20;;;;;;;5.14;100.00;98890.38;1442990;90;21436;-84
2022/11/18 09:52:07;;;;;;;40.27;18.70;;;;;;;5.13;100.00;98888.25;1444453;90;21326;-84
2022/11/18 09:54:35;;;;;;;29.45;16.35;;;;;;;5.17;100.00;98875.66;1444230;90;21429;-85
2022/11/18 09:57:04;;;;;;;27.63;17.27;;;;;;;5.21;100.00;98877.02;1445536;90;21429;-84
2022/11/18 09:59:32;;;;;;;28.13;15.27;;;;;;;5.24;100.00;98870.16;1447720;90;22175;-84
2022/11/18 10:02:23;;;;;;;26.90;17.20;;;;;;;5.24;100.00;98864.91;1452267;90;21466;-84
2022/11/18 10:04:51;;;;;;;29.20;19.30;;;;;;;5.27;100.00;98863.29;1451302;90;21643;-84
2022/11/18 10:07:25;;;;;;;33.90;22.87;;;;;;;5.31;100.00;98848.88;1449767;90;21399;-84
2022/11/18 10:09:55;;;;;;;22.67;13.67;;;;;;;5.37;100.00;98854.01;1446563;90;21399;-83
2022/11/18 10:12:33;;;;;;;32.07;16.77;;;;;;;5.44;100.00;98844.56;1443166;89;21613;-83
2022/11/18 10:15:25;;;;;;;32.67;20.40;;;;;;;5.50;100.00;98836.56;1453367;90;21451;-84
2022/11/18 10:18:06;;;;;;;26.17;16.90;;;;;;;5.48;100.00;98829.33;1446481;90;21549;-84
2022/11/18 10:20:56;;;;;;;29.18;18.23;;;;;;;5.54;100.00;98827.39;1446872;90;21419;-84
2022/11/18 10:23:34;;;;;;;31.60;17.80;;;;;;;5.56;100.00;98823.64;1448521;90;21482;-84
2022/11/18 10:26:00;;;;;;;34.33;21.33;;;;;;;5.56;100.00;98822.33;1448234;90;22339;-83
2022/11/18 10:28:29;;;;;;;25.23;15.47;;;;;;;5.58;100.00;98811.66;1442153;90;21738;-84
2022/11/18 10:31:11;;;;;;;24.23;15.43;;;;;;;5.62;100.00;98816.45;1447334;90;21385;-85
2022/11/18 10:33:38;;;;;;;20.23;13.40;;;;;;;5.66;100.00;98819.59;1452905;90;21362;-82
2022/11/18 10:36:25;;;;;;;20.50;13.87;;;;;;;5.61;100.00;98825.79;1448771;90;21624;-84
2022/11/18 10:39:15;;;;;;;16.63;12.13;;;;;;;5.60;100.00;98822.84;1454752;90;21333;-85
2022/11/18 10:41:48;;;;;;;20.93;12.97;;;;;;;5.63;100.00;98825.16;1450661;90;21385;-87
2022/11/18 10:44:38;;;;;;;25.37;14.10;;;;;;;5.67;100.00;98831.75;1440081;90;21517;-86
2022/11/18 10:47:27;;;;;;;25.10;15.60;;;;;;;5.68;100.00;98823.39;1448336;89;22411;-85
2022/11/18 10:50:00;;;;;;;22.30;13.83;;;;;;;5.72;100.00;98824.22;1435902;90;21509;-86
2022/11/18 10:52:29;;;;;;;42.00;20.83;;;;;;;5.71;100.00;98814.70;1451254;89;21392;-87
2022/11/18 10:55:22;;;;;;;34.73;20.13;;;;;;;5.72;100.00;98803.71;1449286;89;21339;-87
2022/11/18 10:57:52;;;;;;;30.93;18.63;;;;;;;5.74;100.00;98804.38;1452414;90;21488;-86
2022/11/18 11:00:42;;;;;;;26.90;15.08;;;;;;;5.81;100.00;98802.77;1449597;90;22243;-86
2022/11/18 11:03:33;;;;;;;24.20;15.00;;;;;;;5.87;100.00;98800.36;1452009;90;21406;-85
2022/11/18 11:06:23;;;;;;;29.40;17.77;;;;;;;5.96;100.00;98795.17;1450505;89;22133;-85
2022/11/18 11:08:54;;;;;;;36.63;23.47;;;;;;;6.00;100.00;98786.80;1429055;90;21443;-85
2022/11/18 11:11:28;;;;;;;32.83;28.27;;;;;;;6.03;100.00;98785.17;1442039;90;21370;-84
2022/11/18 11:14:14;;;;;;;25.03;18.40;;;;;;;6.00;100.00;98783.36;1445344;90;22316;-84
2022/11/18 11:16:57;;;;;;;27.30;19.17;;;;;;;6.01;100.00;98771.86;1445581;89;21487;-84
2022/11/18 11:19:32;;;;;;;26.93;19.03;;;;;;;6.05;100.00;98775.84;1453542;90;21406;-83
2022/11/18 11:21:58;;;;;;;28.37;21.83;;;;;;;6.11;100.00;98781.77;1443140;90;21583;-84
2022/11/18 11:24:27;;;;;;;21.37;12.93;;;;;;;6.07;100.00;98768.59;1447854;89;22560;-84
2022/11/18 11:27:07;;;;;;;20.77;14.40;;;;;;;6.13;100.00;98775.02;1446118;90;21518;-83
2022/11/18 11:29:56;;;;;;;23.15;16.20;;;;;;;6.20;100.00;98776.86;1441539;89;21458;-84
2022/11/18 11:32:39;;;;;;;23.30;13.40;;;;;;;6.22;100.00;98774.91;1451434;90;21428;-83
2022/11/18 11:35:23;;;;;;;19.60;13.70;;;;;;;6.20;100.00;98779.98;1424429;90;21430;-84
2022/11/18 11:38:00;;;;;;;19.77;11.97;;;;;;;5.95;100.00;98788.26;1443442;89;21385;-83
2022/11/18 11:40:45;;;;;;;21.37;12.87;;;;;;;5.72;100.00;98791.41;1441184;90;21580;-83
2022/11/18 11:43:34;;;;;;;18.90;12.57;;;;;;;5.70;100.00;98785.51;1444250;90;21495;-83
2022/11/18 11:46:33;;;;;;;16.13;11.13;;;;;;;5.57;100.00;98780.67;1447247;90;21467;-84
2022/11/18 11:49:07;;;;;;;20.07;12.97;;;;;;;5.53;100.00;98782.47;1451761;90;21591;-85
2022/11/18 11:51:45;;;;;;;22.43;13.57;;;;;;;5.37;100.00;98776.12;1434745;89;21392;-84
2022/11/18 11:54:35;;;;;;;24.50;13.67;;;;;;;5.23;100.00;98772.75;1443024;90;21473;-83
2022/11/18 11:57:09;;;;;;;22.45;14.40;;;;;;;5.28;100.00;98757.38;1433042;89;21503;-84
2022/11/18 12:00:02;;;;;;;27.43;16.30;;;;;;;5.30;100.00;98735.76;1445304;90;21458;-85